Time;durP1;ratioP1;P1;durP2;ratioP2;P2;SDS_P1;SDS_P2;PMS_P1;PMS_P2;Temp;Humidity;BMP_temperature;BMP_pressure;BME280_temperature;BME280_humidity;BME280_pressure;Samples;Min_cycle;Max_cycle;Signal;HPM_P1;HPM_P2
2021/10/20 00:00:44;;;;;;;10.20;9.23;;;13.90;99.90;;;;;;5054118;28;20201;-48
2021/10/20 00:03:09;;;;;;;10.43;9.33;;;13.80;99.90;;;;;;5055372;28;20311;-52
2021/10/20 00:05:35;;;;;;;10.23;8.97;;;13.80;99.90;;;;;;5051053;28;20201;-54
2021/10/20 00:08:03;;;;;;;10.00;8.50;;;13.80;99.90;;;;;;5054445;28;20220;-47
2021/10/20 00:10:29;;;;;;;11.10;9.30;;;13.70;99.90;;;;;;5050677;28;20189;-49
2021/10/20 00:12:54;;;;;;;9.43;8.40;;;13.90;99.90;;;;;;5056809;28;20436;-49
2021/10/20 00:15:22;;;;;;;10.43;9.43;;;13.70;99.90;;;;;;5061295;28;20205;-48
2021/10/20 00:17:48;;;;;;;11.40;10.40;;;13.60;99.90;;;;;;5050915;28;20190;-53
2021/10/20 00:20:17;;;;;;;10.50;9.50;;;13.50;99.90;;;;;;5057196;28;20476;-59
2021/10/20 00:22:43;;;;;;;12.37;10.43;;;13.40;99.90;;;;;;5053907;28;20947;-49
2021/10/20 00:25:10;;;;;;;11.43;10.27;;;13.40;99.90;;;;;;5053015;28;20437;-51
2021/10/20 00:27:35;;;;;;;12.10;10.90;;;13.40;99.90;;;;;;5051766;28;20439;-53
2021/10/20 00:30:01;;;;;;;11.67;10.57;;;13.40;99.90;;;;;;5052851;28;20451;-58
2021/10/20 00:32:27;;;;;;;12.20;11.00;;;13.30;99.90;;;;;;5052906;28;20193;-48
2021/10/20 00:34:53;;;;;;;13.40;12.00;;;13.30;99.90;;;;;;5069051;28;20466;-49
2021/10/20 00:37:18;;;;;;;12.50;11.30;;;13.20;99.90;;;;;;5054230;28;20190;-49
2021/10/20 00:39:44;;;;;;;13.83;10.97;;;13.10;99.90;;;;;;5049507;28;20186;-48
2021/10/20 00:42:10;;;;;;;11.97;10.77;;;13.10;99.90;;;;;;5063613;28;20177;-51
2021/10/20 00:44:52;;;;;;;11.83;10.47;;;13.10;99.90;;;;;;5060079;28;20432;-61
2021/10/20 00:47:19;;;;;;;12.30;11.10;;;13.00;99.90;;;;;;5064929;28;20265;-48
2021/10/20 00:49:45;;;;;;;11.53;10.43;;;13.00;99.90;;;;;;5059737;28;20593;-48
2021/10/20 00:52:12;;;;;;;11.27;10.17;;;13.00;99.90;;;;;;5051885;28;20823;-49
2021/10/20 00:54:39;;;;;;;11.53;10.33;;;12.90;99.90;;;;;;5048405;28;20437;-47
2021/10/20 00:57:06;;;;;;;12.20;10.67;;;12.90;99.90;;;;;;5049810;28;20454;-51
2021/10/20 00:59:33;;;;;;;12.03;10.53;;;12.80;99.90;;;;;;5048384;28;20468;-50
2021/10/20 01:01:59;;;;;;;11.63;10.43;;;12.80;99.90;;;;;;5047091;28;20448;-49
2021/10/20 01:04:25;;;;;;;12.37;10.97;;;12.80;99.90;;;;;;5052282;28;20509;-50
2021/10/20 01:06:51;;;;;;;12.33;11.03;;;12.90;99.90;;;;;;5058903;28;20440;-51
2021/10/20 01:09:17;;;;;;;12.30;11.10;;;12.90;99.90;;;;;;5061018;28;20793;-50
2021/10/20 01:11:43;;;;;;;12.00;10.30;;;13.00;99.90;;;;;;5049398;28;20451;-52
2021/10/20 01:14:09;;;;;;;11.23;10.13;;;13.00;99.90;;;;;;5054484;28;20493;-51
2021/10/20 01:16:35;;;;;;;11.20;10.13;;;12.90;99.90;;;;;;5062508;28;21291;-48
2021/10/20 01:19:00;;;;;;;10.83;9.73;;;12.90;99.90;;;;;;5060305;28;20182;-49
2021/10/20 01:21:26;;;;;;;11.20;10.10;;;12.80;99.90;;;;;;5060151;28;20182;-51
2021/10/20 01:23:51;;;;;;;10.70;9.70;;;12.70;99.90;;;;;;5050224;28;20186;-48
2021/10/20 01:26:17;;;;;;;10.43;9.43;;;12.70;99.90;;;;;;5052196;28;20190;-51
2021/10/20 01:28:44;;;;;;;11.37;10.27;;;12.70;99.90;;;;;;5050915;28;20185;-48
2021/10/20 01:31:10;;;;;;;11.47;10.30;;;12.60;99.90;;;;;;5061187;28;20206;-49
2021/10/20 01:33:36;;;;;;;10.90;9.80;;;12.70;99.90;;;;;;5049092;28;20437;-49
2021/10/20 01:36:02;;;;;;;10.10;8.90;;;12.70;99.90;;;;;;5052957;28;21097;-48
2021/10/20 01:38:28;;;;;;;10.90;9.80;;;12.70;99.90;;;;;;5063770;28;20505;-50
2021/10/20 01:40:54;;;;;;;10.30;9.20;;;12.60;99.90;;;;;;5062201;28;20543;-51
2021/10/20 01:43:19;;;;;;;9.97;8.97;;;12.60;99.90;;;;;;5062620;28;20208;-48
2021/10/20 01:45:45;;;;;;;11.00;9.90;;;12.70;99.90;;;;;;5057135;28;20552;-50
2021/10/20 01:48:11;;;;;;;10.27;9.27;;;12.70;99.90;;;;;;5054314;28;20193;-48
2021/10/20 01:50:36;;;;;;;10.80;9.70;;;12.60;99.90;;;;;;5068671;28;20186;-49
2021/10/20 01:53:02;;;;;;;12.13;10.93;;;12.60;99.90;;;;;;5059467;28;20186;-52
2021/10/20 01:55:28;;;;;;;10.80;9.70;;;12.70;99.90;;;;;;5053417;28;20217;-50
2021/10/20 01:57:53;;;;;;;11.97;10.57;;;12.90;99.90;;;;;;5065199;28;21138;-48
2021/10/20 02:00:19;;;;;;;10.47;9.47;;;12.90;99.90;;;;;;5058327;28;20182;-51
2021/10/20 02:02:45;;;;;;;11.37;10.23;;;12.80;99.90;;;;;;5056691;28;20218;-48
2021/10/20 02:05:13;;;;;;;10.37;9.37;;;12.80;99.90;;;;;;5052353;28;20555;-49
2021/10/20 02:07:39;;;;;;;10.63;9.63;;;12.80;99.90;;;;;;5055597;28;20229;-49
2021/10/20 02:10:10;;;;;;;11.57;10.37;;;12.80;99.90;;;;;;5051352;28;20837;-52
2021/10/20 02:12:35;;;;;;;10.83;9.73;;;12.90;99.90;;;;;;5059136;28;20435;-51
2021/10/20 02:15:01;;;;;;;11.00;9.80;;;12.90;99.90;;;;;;5064109;28;20517;-48
2021/10/20 02:17:27;;;;;;;10.47;9.47;;;12.90;99.90;;;;;;5050713;28;20647;-49
2021/10/20 02:19:52;;;;;;;10.60;9.70;;;13.00;99.90;;;;;;5061411;28;20186;-50
2021/10/20 02:22:18;;;;;;;10.77;9.73;;;13.00;99.90;;;;;;5070675;28;20497;-47
2021/10/20 02:24:43;;;;;;;9.80;8.90;;;13.00;99.90;;;;;;5065387;28;20187;-49
2021/10/20 02:27:09;;;;;;;10.43;9.43;;;13.10;99.90;;;;;;5053877;28;20249;-48
2021/10/20 02:29:34;;;;;;;10.47;9.47;;;13.00;99.90;;;;;;5060860;28;20265;-54
2021/10/20 02:32:00;;;;;;;10.07;9.07;;;13.00;99.90;;;;;;5054625;28;20186;-56
2021/10/20 02:34:26;;;;;;;10.03;9.13;;;13.00;99.90;;;;;;5050229;28;20191;-48
2021/10/20 02:36:51;;;;;;;8.90;8.10;;;12.90;99.90;;;;;;5054845;28;20792;-50
2021/10/20 02:39:17;;;;;;;9.90;8.87;;;13.00;99.90;;;;;;5058206;28;20228;-48
2021/10/20 02:41:43;;;;;;;9.17;8.37;;;13.00;99.90;;;;;;5064851;28;20628;-47
2021/10/20 02:44:08;;;;;;;10.27;9.30;;;13.00;99.90;;;;;;5064666;28;20526;-50
2021/10/20 02:46:34;;;;;;;9.10;8.20;;;12.90;99.90;;;;;;5062667;28;20190;-49
2021/10/20 02:49:00;;;;;;;8.80;8.00;;;12.90;99.90;;;;;;5051292;28;20182;-49
2021/10/20 02:51:29;;;;;;;9.47;8.57;;;13.00;99.90;;;;;;5064730;28;20227;-49
2021/10/20 02:53:55;;;;;;;8.80;7.90;;;13.00;99.90;;;;;;5067853;28;20189;-49
2021/10/20 02:56:21;;;;;;;9.80;8.80;;;13.00;99.90;;;;;;5054526;28;20478;-49
2021/10/20 02:58:46;;;;;;;9.17;8.27;;;13.10;99.90;;;;;;5062295;28;20412;-48
2021/10/20 03:01:12;;;;;;;13.03;8.77;;;13.00;99.90;;;;;;5052544;28;20204;-51
2021/10/20 03:03:37;;;;;;;8.77;7.90;;;13.10;99.90;;;;;;5050981;28;20250;-49
2021/10/20 03:06:03;;;;;;;9.73;8.73;;;13.10;99.90;;;;;;5049658;28;20186;-48
2021/10/20 03:08:29;;;;;;;8.83;7.93;;;13.10;99.90;;;;;;5057378;28;20213;-49
2021/10/20 03:10:54;;;;;;;9.33;8.50;;;13.10;99.90;;;;;;5049618;28;20185;-50
2021/10/20 03:13:20;;;;;;;9.83;8.87;;;13.20;99.90;;;;;;5069763;28;20292;-47
2021/10/20 03:15:45;;;;;;;8.83;8.00;;;13.20;99.90;;;;;;5056092;28;20218;-52
2021/10/20 03:18:11;;;;;;;8.67;7.87;;;13.20;99.90;;;;;;5066485;28;20182;-47
2021/10/20 03:20:36;;;;;;;9.07;8.17;;;13.20;99.90;;;;;;5058783;28;20221;-53
2021/10/20 03:23:02;;;;;;;8.40;7.60;;;13.30;99.90;;;;;;5060524;28;20224;-48
2021/10/20 03:25:28;;;;;;;8.67;7.80;;;13.30;99.90;;;;;;5057461;28;20194;-49
2021/10/20 03:27:54;;;;;;;8.47;7.67;;;13.40;99.90;;;;;;5054958;28;21003;-51
2021/10/20 03:30:21;;;;;;;9.57;8.67;;;13.40;99.90;;;;;;5050013;28;20440;-51
2021/10/20 03:32:47;;;;;;;9.30;8.40;;;13.50;99.90;;;;;;5061404;28;20197;-52
2021/10/20 03:35:14;;;;;;;9.00;7.90;;;13.50;99.90;;;;;;5055766;28;21092;-51
2021/10/20 03:37:40;;;;;;;9.07;8.27;;;13.50;99.90;;;;;;5060697;28;20440;-52
2021/10/20 03:40:07;;;;;;;9.20;8.37;;;13.50;99.90;;;;;;5051749;28;20441;-49
2021/10/20 03:42:33;;;;;;;9.37;8.30;;;13.40;99.90;;;;;;5052399;28;20968;-52
2021/10/20 03:44:59;;;;;;;9.17;8.27;;;13.40;99.90;;;;;;5062071;28;20456;-48
2021/10/20 03:47:26;;;;;;;9.67;8.87;;;13.40;99.90;;;;;;5060519;28;20482;-49
2021/10/20 03:49:52;;;;;;;9.00;8.13;;;13.40;99.90;;;;;;5056405;28;20273;-52
2021/10/20 03:52:18;;;;;;;10.00;8.93;;;13.30;99.90;;;;;;5061290;28;20765;-48
2021/10/20 03:54:44;;;;;;;10.93;9.80;;;13.30;99.90;;;;;;5058533;28;20781;-50
2021/10/20 03:57:10;;;;;;;9.37;8.47;;;13.30;99.90;;;;;;5056789;28;20455;-48
2021/10/20 03:59:36;;;;;;;11.40;7.87;;;13.20;99.90;;;;;;5058320;28;20436;-49
2021/10/20 04:02:01;;;;;;;9.83;8.30;;;13.20;99.90;;;;;;5062830;28;20217;-48
2021/10/20 04:04:27;;;;;;;9.67;8.67;;;13.20;99.90;;;;;;5058714;28;20547;-49
2021/10/20 04:06:53;;;;;;;8.90;8.00;;;13.20;99.90;;;;;;5053898;28;20650;-50
2021/10/20 04:09:18;;;;;;;8.90;8.00;;;13.10;99.90;;;;;;5055565;28;20710;-51
2021/10/20 04:11:44;;;;;;;8.60;7.70;;;13.20;99.90;;;;;;5054103;28;20188;-46
2021/10/20 04:14:09;;;;;;;8.60;7.80;;;13.20;99.90;;;;;;5059173;28;20185;-47
2021/10/20 04:16:35;;;;;;;7.97;7.17;;;13.20;99.90;;;;;;5060133;28;20221;-51
2021/10/20 04:19:01;;;;;;;7.90;7.20;;;13.20;99.90;;;;;;5054528;28;20842;-48
2021/10/20 04:21:27;;;;;;;8.90;8.00;;;13.20;99.90;;;;;;5060045;28;20185;-46
2021/10/20 04:23:52;;;;;;;7.47;6.70;;;13.20;99.90;;;;;;5042703;28;20471;-49
2021/10/20 04:26:18;;;;;;;7.13;6.43;;;13.20;99.90;;;;;;5042474;28;20733;-51
2021/10/20 04:28:43;;;;;;;7.93;7.13;;;13.20;99.90;;;;;;5044845;28;20569;-48
2021/10/20 04:31:09;;;;;;;8.07;7.27;;;13.30;99.90;;;;;;5053461;28;20193;-47
2021/10/20 04:33:35;;;;;;;7.77;7.00;;;13.40;99.90;;;;;;5056068;28;20208;-51
2021/10/20 04:36:00;;;;;;;7.33;6.63;;;13.40;99.90;;;;;;5040894;28;20202;-48
2021/10/20 04:38:26;;;;;;;6.87;6.27;;;13.40;99.90;;;;;;5042494;28;20244;-52
2021/10/20 04:40:52;;;;;;;10.60;7.10;;;13.40;99.90;;;;;;5053819;28;20186;-49
2021/10/20 04:43:17;;;;;;;7.03;6.27;;;13.40;99.90;;;;;;5049221;28;20278;-51
2021/10/20 04:45:43;;;;;;;7.60;6.47;;;13.40;99.90;;;;;;5052160;28;20187;-48
2021/10/20 04:48:08;;;;;;;6.53;5.90;;;13.50;99.90;;;;;;5049724;28;20189;-50
2021/10/20 04:50:34;;;;;;;8.40;7.57;;;13.50;99.90;;;;;;5049989;28;20216;-48
2021/10/20 04:52:59;;;;;;;8.63;7.70;;;13.50;99.90;;;;;;5049905;28;20186;-52
2021/10/20 04:55:25;;;;;;;7.50;6.80;;;13.60;99.90;;;;;;5065729;28;20197;-50
2021/10/20 04:57:52;;;;;;;7.10;6.50;;;13.60;99.90;;;;;;5068230;28;20201;-49
2021/10/20 05:00:20;;;;;;;7.20;6.50;;;13.60;99.90;;;;;;5058619;28;20184;-51
2021/10/20 05:02:45;;;;;;;8.07;6.90;;;13.60;99.90;;;;;;5049496;28;20514;-49
2021/10/20 05:05:11;;;;;;;7.00;6.30;;;13.70;99.90;;;;;;5048392;28;20428;-48
2021/10/20 05:07:53;;;;;;;7.10;6.40;;;13.80;99.90;;;;;;5046954;28;20278;-48
2021/10/20 05:10:21;;;;;;;6.70;6.10;;;13.70;99.90;;;;;;5047175;28;20190;-55
2021/10/20 05:12:46;;;;;;;7.53;6.83;;;13.80;99.90;;;;;;5048735;28;20435;-47
2021/10/20 05:15:13;;;;;;;6.60;6.00;;;13.70;99.90;;;;;;5048558;28;20460;-49
2021/10/20 05:17:39;;;;;;;7.17;5.93;;;13.80;99.90;;;;;;5059885;28;20648;-52
2021/10/20 05:20:07;;;;;;;6.53;5.93;;;13.80;99.90;;;;;;5052589;28;20424;-48
2021/10/20 05:22:37;;;;;;;6.40;5.90;;;13.80;99.90;;;;;;5055867;28;21167;-50
2021/10/20 05:25:04;;;;;;;5.57;5.07;;;13.80;99.90;;;;;;5058162;28;20451;-48
2021/10/20 05:27:30;;;;;;;6.33;5.60;;;13.90;99.90;;;;;;5051495;28;20811;-49
2021/10/20 05:29:57;;;;;;;6.70;6.10;;;13.90;99.90;;;;;;5070969;28;20475;-49
2021/10/20 05:32:24;;;;;;;6.60;6.00;;;13.90;99.90;;;;;;5071631;28;20627;-46
2021/10/20 05:34:49;;;;;;;6.80;6.13;;;13.90;99.90;;;;;;5061072;28;20551;-52
2021/10/20 05:37:15;;;;;;;6.33;5.73;;;13.80;99.90;;;;;;5061985;28;20523;-50
2021/10/20 05:39:40;;;;;;;6.80;6.07;;;13.80;99.90;;;;;;5052248;28;20183;-48
2021/10/20 05:42:06;;;;;;;6.07;5.57;;;13.80;99.90;;;;;;5052119;28;20182;-49
2021/10/20 05:44:31;;;;;;;6.00;5.50;;;13.90;99.90;;;;;;5052322;28;20186;-50
2021/10/20 05:46:57;;;;;;;6.00;5.40;;;13.80;99.90;;;;;;5069677;28;20546;-46
2021/10/20 05:49:22;;;;;;;6.00;5.40;;;13.90;99.90;;;;;;5071980;28;20182;-47
2021/10/20 05:51:48;;;;;;;5.77;5.27;;;13.90;99.90;;;;;;5054008;28;20190;-50
2021/10/20 05:54:13;;;;;;;6.30;5.70;;;13.90;99.90;;;;;;5050966;28;20248;-52
2021/10/20 05:56:39;;;;;;;6.47;5.30;;;13.80;99.90;;;;;;5051791;28;20206;-48
2021/10/20 05:59:05;;;;;;;5.30;4.80;;;13.70;99.90;;;;;;5050648;28;20212;-50
2021/10/20 06:01:31;;;;;;;6.50;5.90;;;13.80;99.90;;;;;;5051594;28;20185;-48
2021/10/20 06:03:57;;;;;;;6.13;5.53;;;13.80;99.90;;;;;;5052249;28;20301;-51
2021/10/20 06:06:24;;;;;;;5.90;5.40;;;13.70;99.90;;;;;;5065073;28;20436;-48
2021/10/20 06:08:50;;;;;;;6.10;5.57;;;13.80;99.90;;;;;;5058881;28;20443;-50
2021/10/20 06:11:17;;;;;;;5.57;5.07;;;13.80;99.90;;;;;;5053687;28;20437;-53
2021/10/20 06:13:43;;;;;;;6.13;5.53;;;13.80;99.90;;;;;;5071209;28;20185;-48
2021/10/20 06:16:08;;;;;;;6.23;5.53;;;13.80;99.90;;;;;;5071534;28;20525;-49
2021/10/20 06:18:34;;;;;;;5.80;5.30;;;13.90;99.90;;;;;;5053101;28;20193;-51
2021/10/20 06:20:59;;;;;;;6.90;5.60;;;13.80;99.90;;;;;;5052960;28;20190;-50
2021/10/20 06:23:25;;;;;;;5.70;5.20;;;13.90;99.90;;;;;;5068878;28;20226;-49
2021/10/20 06:25:50;;;;;;;5.73;5.00;;;13.80;99.90;;;;;;5068401;28;20202;-47
2021/10/20 06:28:16;;;;;;;5.53;5.03;;;13.80;99.90;;;;;;5047894;28;20216;-46
2021/10/20 06:30:41;;;;;;;6.10;5.60;;;13.90;99.90;;;;;;5056913;28;20182;-49
2021/10/20 06:33:07;;;;;;;6.27;5.77;;;14.00;99.90;;;;;;5054294;28;20194;-47
2021/10/20 06:35:33;;;;;;;5.50;5.00;;;14.10;99.90;;;;;;5051042;28;20271;-47
2021/10/20 06:37:58;;;;;;;5.77;5.27;;;14.00;99.90;;;;;;5050692;28;20636;-50
2021/10/20 06:40:24;;;;;;;5.77;5.27;;;14.10;99.90;;;;;;5051704;28;20178;-49
2021/10/20 06:42:49;;;;;;;5.37;4.90;;;14.10;99.90;;;;;;5054100;28;20544;-48
2021/10/20 06:45:15;;;;;;;5.50;5.00;;;14.20;99.90;;;;;;5050219;28;20651;-49
2021/10/20 06:47:41;;;;;;;5.60;5.10;;;14.20;99.90;;;;;;5051150;28;20828;-51
2021/10/20 06:50:07;;;;;;;5.53;5.03;;;14.30;99.90;;;;;;5049807;28;20192;-50
2021/10/20 06:52:33;;;;;;;5.93;5.30;;;14.30;99.90;;;;;;5060659;28;20537;-51
2021/10/20 06:54:58;;;;;;;5.57;5.07;;;14.40;99.90;;;;;;5050013;28;20460;-49
2021/10/20 06:57:24;;;;;;;5.73;5.17;;;14.40;99.90;;;;;;5049604;28;20193;-60
2021/10/20 06:59:50;;;;;;;5.67;5.13;;;14.50;99.90;;;;;;5048982;28;20213;-53
2021/10/20 07:02:15;;;;;;;6.03;5.07;;;14.50;99.90;;;;;;5042008;28;20182;-47
2021/10/20 07:04:41;;;;;;;5.87;5.37;;;14.50;99.90;;;;;;5048509;28;20544;-47
2021/10/20 07:07:10;;;;;;;5.20;4.70;;;14.60;99.90;;;;;;5049442;28;20174;-49
2021/10/20 07:09:36;;;;;;;5.23;4.80;;;14.70;99.90;;;;;;5049216;28;20179;-46
2021/10/20 07:12:02;;;;;;;5.20;4.70;;;14.70;99.90;;;;;;5048542;28;20475;-50
2021/10/20 07:14:28;;;;;;;5.20;4.70;;;14.80;99.90;;;;;;5048519;28;20605;-48
2021/10/20 07:16:57;;;;;;;6.07;5.47;;;14.80;99.90;;;;;;5049170;28;20459;-50
2021/10/20 07:19:23;;;;;;;5.07;4.50;;;14.90;99.90;;;;;;5055553;28;20189;-46
2021/10/20 07:21:48;;;;;;;6.00;4.50;;;15.00;99.90;;;;;;5052111;28;20797;-46
2021/10/20 07:24:14;;;;;;;5.30;4.90;;;15.10;99.90;;;;;;5049812;28;20253;-50
2021/10/20 07:26:39;;;;;;;5.57;5.07;;;15.20;99.90;;;;;;5049318;28;20190;-51
2021/10/20 07:29:05;;;;;;;4.97;4.47;;;15.30;99.90;;;;;;5048328;28;20197;-49
2021/10/20 07:31:30;;;;;;;5.07;4.57;;;15.40;99.90;;;;;;5050069;28;20576;-47
2021/10/20 07:33:57;;;;;;;5.53;5.03;;;15.50;99.90;;;;;;5048773;28;20251;-46
2021/10/20 07:36:23;;;;;;;5.50;4.93;;;15.60;99.90;;;;;;5046945;28;20226;-54
2021/10/20 07:38:49;;;;;;;5.20;4.80;;;15.80;99.90;;;;;;5049124;28;20467;-49
2021/10/20 07:41:15;;;;;;;5.83;5.33;;;16.00;99.90;;;;;;5048540;28;20208;-48
2021/10/20 07:43:41;;;;;;;6.17;5.57;;;16.30;99.90;;;;;;5049113;28;20417;-45
2021/10/20 07:46:06;;;;;;;6.13;5.53;;;16.40;99.90;;;;;;5048364;28;20194;-47
2021/10/20 07:48:32;;;;;;;5.50;5.10;;;16.60;99.90;;;;;;5056745;28;20273;-48
2021/10/20 07:50:57;;;;;;;6.17;5.67;;;17.00;99.90;;;;;;5054492;28;20225;-50
2021/10/20 07:53:23;;;;;;;6.40;5.80;;;17.30;99.90;;;;;;5057461;28;20183;-54
2021/10/20 07:55:48;;;;;;;6.40;5.80;;;17.70;99.90;;;;;;5048376;28;20264;-48
2021/10/20 07:58:14;;;;;;;5.90;5.50;;;18.20;99.90;;;;;;5049226;28;20184;-46
2021/10/20 08:00:39;;;;;;;6.07;5.67;;;18.50;98.60;;;;;;5046563;28;20189;-47
2021/10/20 08:03:05;;;;;;;5.83;5.43;;;18.60;98.20;;;;;;5062013;28;20718;-47
2021/10/20 08:05:30;;;;;;;5.80;5.30;;;18.40;97.90;;;;;;5060467;28;20749;-51
2021/10/20 08:07:58;;;;;;;5.97;5.47;;;18.40;98.10;;;;;;5051536;28;20261;-50
2021/10/20 08:10:26;;;;;;;5.80;5.40;;;18.70;97.80;;;;;;5047588;28;20197;-51
2021/10/20 08:12:56;;;;;;;5.60;5.20;;;19.20;96.80;;;;;;5050263;28;20594;-49
2021/10/20 08:15:22;;;;;;;5.90;5.50;;;19.40;95.90;;;;;;5050487;28;20514;-53
2021/10/20 08:17:49;;;;;;;6.90;6.40;;;19.20;95.80;;;;;;5051348;28;20421;-52
2021/10/20 08:20:18;;;;;;;9.43;6.33;;;19.30;95.70;;;;;;5054211;28;20431;-50
2021/10/20 08:22:45;;;;;;;6.07;5.60;;;19.80;95.10;;;;;;5050868;28;20435;-47
2021/10/20 08:25:12;;;;;;;6.20;5.80;;;19.90;94.00;;;;;;5053715;28;20512;-48
2021/10/20 08:27:38;;;;;;;6.20;5.70;;;20.20;93.90;;;;;;5052022;28;20409;-50
2021/10/20 08:30:05;;;;;;;6.33;5.87;;;20.90;93.50;;;;;;5052054;28;20810;-52
2021/10/20 08:32:31;;;;;;;6.47;6.03;;;21.60;91.10;;;;;;5052591;28;20417;-50
2021/10/20 08:34:57;;;;;;;6.33;5.60;;;22.00;87.30;;;;;;5048165;28;20464;-49
2021/10/20 08:37:23;;;;;;;6.60;6.10;;;22.40;85.30;;;;;;5046974;28;20467;-48
2021/10/20 08:39:48;;;;;;;6.67;6.17;;;22.80;82.20;;;;;;5048294;28;20212;-52
2021/10/20 08:42:14;;;;;;;6.23;5.83;;;22.80;79.80;;;;;;5060597;28;20189;-45
2021/10/20 08:44:40;;;;;;;6.07;5.57;;;23.40;77.40;;;;;;5049068;28;20282;-49
2021/10/20 08:47:08;;;;;;;6.30;5.90;;;23.40;73.40;;;;;;5048354;28;20675;-55
2021/10/20 08:49:34;;;;;;;6.37;6.00;;;23.70;73.60;;;;;;5049565;28;21101;-52
2021/10/20 08:51:59;;;;;;;6.20;5.80;;;24.10;70.70;;;;;;5062181;28;20945;-46
2021/10/20 08:54:25;;;;;;;6.97;6.20;;;24.20;69.50;;;;;;5072213;28;20447;-50
2021/10/20 08:56:51;;;;;;;6.30;5.90;;;24.50;67.60;;;;;;5063420;28;20270;-48
2021/10/20 08:59:18;;;;;;;6.23;5.83;;;24.50;65.60;;;;;;5071039;28;20188;-50
2021/10/20 09:01:44;;;;;;;7.30;6.80;;;24.20;65.60;;;;;;5055545;28;21210;-46
2021/10/20 09:04:10;;;;;;;5.90;5.50;;;23.80;67.40;;;;;;5067584;28;20491;-49
2021/10/20 09:06:36;;;;;;;7.97;7.37;;;23.60;67.50;;;;;;5062427;28;20579;-50
2021/10/20 09:09:06;;;;;;;6.13;5.83;;;23.70;69.00;;;;;;5063431;28;20213;-47
2021/10/20 09:11:32;;;;;;;6.87;6.37;;;24.10;68.30;;;;;;5069694;28;20202;-49
2021/10/20 09:14:06;;;;;;;6.27;5.83;;;24.20;66.10;;;;;;5057609;28;20427;-47
2021/10/20 09:16:34;;;;;;;6.27;5.87;;;24.00;65.70;;;;;;5063930;28;20462;-48
2021/10/20 09:19:12;;;;;;;6.93;6.53;;;23.70;65.20;;;;;;5071020;28;20426;-51
2021/10/20 09:21:54;;;;;;;6.80;6.37;;;22.80;68.00;;;;;;5063513;28;20435;-47
2021/10/20 09:24:20;;;;;;;6.30;5.90;;;22.50;70.10;;;;;;5055622;28;20438;-47
2021/10/20 09:26:46;;;;;;;5.77;5.40;;;22.30;70.50;;;;;;5060804;28;20426;-48
2021/10/20 09:29:26;;;;;;;6.23;5.73;;;22.20;70.60;;;;;;5065664;28;20515;-49
2021/10/20 09:31:52;;;;;;;6.90;6.30;;;21.80;72.20;;;;;;5060747;28;20648;-48
2021/10/20 09:34:19;;;;;;;6.60;6.20;;;21.70;72.90;;;;;;5053634;28;21100;-47
2021/10/20 09:36:45;;;;;;;7.10;6.40;;;21.70;73.40;;;;;;5051941;28;20580;-47
2021/10/20 09:39:15;;;;;;;6.43;5.93;;;21.80;73.60;;;;;;5049788;28;20449;-50
2021/10/20 09:41:40;;;;;;;6.37;5.97;;;21.60;73.20;;;;;;5052291;28;20438;-48
2021/10/20 09:44:12;;;;;;;5.50;5.10;;;21.70;73.10;;;;;;5051496;28;20426;-48
2021/10/20 09:46:44;;;;;;;6.43;5.93;;;21.70;72.20;;;;;;5051870;28;20183;-49
2021/10/20 09:49:23;;;;;;;6.23;5.83;;;21.90;72.10;;;;;;5064226;28;20436;-46
2021/10/20 09:51:57;;;;;;;6.40;5.97;;;22.00;73.00;;;;;;5051595;28;21011;-48
2021/10/20 09:54:25;;;;;;;5.97;5.50;;;22.10;70.80;;;;;;5063247;28;20439;-49
2021/10/20 09:56:58;;;;;;;6.27;5.87;;;22.50;70.60;;;;;;5050875;28;20476;-49
2021/10/20 09:59:25;;;;;;;6.73;6.20;;;22.70;70.70;;;;;;5062656;28;20442;-47
2021/10/20 10:01:52;;;;;;;5.77;5.37;;;22.80;68.60;;;;;;5051792;28;20432;-53
2021/10/20 10:04:18;;;;;;;5.80;5.40;;;22.90;68.30;;;;;;5059255;28;20458;-52
2021/10/20 10:06:45;;;;;;;6.67;6.07;;;22.90;67.60;;;;;;5050918;28;20428;-46
2021/10/20 10:09:11;;;;;;;5.73;5.13;;;23.00;66.50;;;;;;5054260;28;20533;-51
2021/10/20 10:11:40;;;;;;;5.67;5.27;;;23.20;67.90;;;;;;5051949;28;20417;-48
2021/10/20 10:14:08;;;;;;;6.40;5.90;;;23.50;66.10;;;;;;5058469;28;20834;-48
2021/10/20 10:16:37;;;;;;;5.80;5.40;;;23.70;64.30;;;;;;5065511;28;20478;-47
2021/10/20 10:19:04;;;;;;;6.20;5.70;;;23.80;62.20;;;;;;5051169;28;20444;-50
2021/10/20 10:21:34;;;;;;;7.00;6.50;;;23.90;63.20;;;;;;5050268;28;20405;-49
2021/10/20 10:24:02;;;;;;;5.83;5.43;;;24.50;62.40;;;;;;5050681;28;20413;-48
2021/10/20 10:26:28;;;;;;;6.70;6.30;;;24.50;60.50;;;;;;5051673;28;20428;-50
2021/10/20 10:29:09;;;;;;;5.83;5.43;;;24.20;60.70;;;;;;5051341;28;20417;-48
2021/10/20 10:31:42;;;;;;;6.63;6.23;;;23.90;59.70;;;;;;5050335;28;20269;-48
2021/10/20 10:34:18;;;;;;;6.20;5.80;;;23.80;62.80;;;;;;5053530;28;20458;-48
2021/10/20 10:36:54;;;;;;;6.90;6.50;;;23.80;61.10;;;;;;5053735;28;20497;-49
2021/10/20 10:39:21;;;;;;;5.80;5.50;;;23.70;60.90;;;;;;5059518;28;20464;-49
2021/10/20 10:41:48;;;;;;;6.10;5.70;;;23.90;60.80;;;;;;5050437;28;20451;-48
2021/10/20 10:44:22;;;;;;;6.40;5.90;;;24.10;61.80;;;;;;5060192;28;20446;-48
2021/10/20 10:47:05;;;;;;;5.90;5.60;;;24.30;58.70;;;;;;5058868;28;20439;-50
2021/10/20 10:49:53;;;;;;;6.70;6.30;;;24.10;58.90;;;;;;5062947;28;20443;-50
2021/10/20 10:52:19;;;;;;;6.80;6.30;;;23.50;58.30;;;;;;5050058;28;20428;-46
2021/10/20 10:55:18;;;;;;;6.27;5.93;;;23.20;59.70;;;;;;5054255;28;20498;-49
2021/10/20 10:57:54;;;;;;;8.70;6.30;;;23.10;59.70;;;;;;5061657;28;20429;-50
2021/10/20 11:00:20;;;;;;;6.57;6.00;;;23.30;59.70;;;;;;5054964;28;20440;-47
2021/10/20 11:02:51;;;;;;;5.93;5.63;;;24.40;59.00;;;;;;5058496;28;20486;-47
2021/10/20 11:05:28;;;;;;;6.50;6.00;;;25.50;54.80;;;;;;5051578;28;20188;-49
2021/10/20 11:08:05;;;;;;;6.03;5.57;;;26.60;53.70;;;;;;5062022;28;20989;-53
2021/10/20 11:10:34;;;;;;;6.00;5.60;;;27.70;50.50;;;;;;5055925;28;20825;-51
2021/10/20 11:13:00;;;;;;;6.27;5.87;;;28.60;48.20;;;;;;5060747;28;20511;-51
2021/10/20 11:15:27;;;;;;;5.80;5.50;;;29.20;44.80;;;;;;5055342;28;20474;-49
2021/10/20 11:17:53;;;;;;;6.20;5.80;;;30.20;43.30;;;;;;5057435;28;20424;-49
2021/10/20 11:20:21;;;;;;;5.70;5.40;;;30.70;40.90;;;;;;5049215;28;20443;-50
2021/10/20 11:22:53;;;;;;;6.10;5.80;;;31.20;38.70;;;;;;5049025;28;20477;-59
2021/10/20 11:25:20;;;;;;;5.90;5.60;;;31.20;36.90;;;;;;5048517;28;20436;-52
2021/10/20 11:27:51;;;;;;;5.63;5.33;;;30.70;37.90;;;;;;5050855;28;20800;-52
2021/10/20 11:30:18;;;;;;;5.97;5.57;;;30.60;37.50;;;;;;5052374;28;20973;-48
2021/10/20 11:32:45;;;;;;;6.50;6.10;;;31.10;36.10;;;;;;5053359;28;20424;-50
2021/10/20 11:35:29;;;;;;;5.70;5.40;;;31.60;36.30;;;;;;5046995;28;20460;-47
2021/10/20 11:38:07;;;;;;;6.30;5.90;;;32.10;34.20;;;;;;5048101;28;21306;-53
2021/10/20 11:40:46;;;;;;;6.00;5.70;;;32.20;33.30;;;;;;5051124;28;20409;-47
2021/10/20 11:43:25;;;;;;;6.30;5.80;;;31.70;34.30;;;;;;5049221;28;20421;-48
2021/10/20 11:45:51;;;;;;;7.13;6.63;;;31.40;32.80;;;;;;5047242;28;20941;-48
2021/10/20 11:48:20;;;;;;;6.30;5.70;;;30.80;34.50;;;;;;5047656;28;20494;-50
2021/10/20 11:50:54;;;;;;;5.70;5.40;;;30.40;35.90;;;;;;5048762;28;20182;-50
2021/10/20 11:53:19;;;;;;;6.20;5.80;;;30.40;34.90;;;;;;5048588;28;20475;-49
2021/10/20 11:55:47;;;;;;;6.70;6.07;;;30.30;34.50;;;;;;5049811;28;20460;-49
2021/10/20 11:58:21;;;;;;;5.63;5.33;;;30.10;34.50;;;;;;5049906;28;20182;-48
2021/10/20 12:01:07;;;;;;;5.97;5.67;;;29.70;35.10;;;;;;5050376;28;20430;-52
2021/10/20 12:03:39;;;;;;;6.70;6.30;;;29.50;35.70;;;;;;5050876;28;20522;-47
2021/10/20 12:06:08;;;;;;;6.00;5.60;;;29.00;35.20;;;;;;5050993;28;20474;-48
2021/10/20 12:08:34;;;;;;;6.20;5.87;;;28.70;35.00;;;;;;5049141;28;21061;-49
2021/10/20 12:11:02;;;;;;;5.60;5.30;;;28.60;35.30;;;;;;5047945;28;20432;-47
2021/10/20 12:13:28;;;;;;;5.57;5.27;;;27.70;34.70;;;;;;5048067;28;20473;-49
2021/10/20 12:15:57;;;;;;;6.20;5.90;;;27.40;35.80;;;;;;5046898;28;20502;-51
2021/10/20 12:18:24;;;;;;;5.93;5.63;;;26.90;35.10;;;;;;5049398;28;20909;-49
2021/10/20 12:20:56;;;;;;;6.30;5.90;;;26.40;36.30;;;;;;5047815;28;20428;-48
2021/10/20 12:23:22;;;;;;;6.33;6.03;;;25.90;36.10;;;;;;5049232;28;20527;-47
2021/10/20 12:25:47;;;;;;;5.83;5.53;;;25.70;37.20;;;;;;5048712;28;20435;-54
2021/10/20 12:28:13;;;;;;;5.97;5.57;;;25.40;37.40;;;;;;5047874;28;20433;-46
2021/10/20 12:30:40;;;;;;;5.87;5.57;;;25.30;38.00;;;;;;5047958;28;20567;-49
2021/10/20 12:33:12;;;;;;;6.50;6.20;;;25.10;38.20;;;;;;5047980;28;20512;-49
2021/10/20 12:35:48;;;;;;;6.40;6.00;;;25.20;38.40;;;;;;5049542;28;20469;-48
2021/10/20 12:38:14;;;;;;;6.20;5.90;;;24.70;37.70;;;;;;5047646;28;20436;-51
2021/10/20 12:40:40;;;;;;;5.83;5.50;;;24.70;38.90;;;;;;5048240;28;20410;-49
2021/10/20 12:43:07;;;;;;;5.47;5.17;;;24.40;39.60;;;;;;5047881;28;20183;-50